Time;durP1;ratioP1;P1;durP2;ratioP2;P2;SDS_P1;SDS_P2;PMS_P1;PMS_P2;Temp;Humidity;BMP_temperature;BMP_pressure;BME280_temperature;BME280_humidity;BME280_pressure;Samples;Min_cycle;Max_cycle;Signal;HPM_P1;HPM_P2
2022/08/05 00:01:02;;;;;;;1.52;0.90;;;;;;;;;;5073912;28;20027;-73
2022/08/05 00:03:28;;;;;;;4.38;1.30;;;;;;;;;;5073413;28;20024;-72
2022/08/05 00:05:55;;;;;;;3.10;1.40;;;;;;;;;;5071240;28;20111;-72
2022/08/05 00:08:22;;;;;;;3.50;1.35;;;;;;;;;;5054061;28;20063;-72
2022/08/05 00:10:48;;;;;;;4.53;0.98;;;;;;;;;;5052565;28;20025;-72
2022/08/05 00:13:15;;;;;;;0.95;0.68;;;;;;;;;;5048465;28;20446;-73
2022/08/05 00:15:42;;;;;;;7.32;1.65;;;;;;;;;;5048308;28;20443;-72
2022/08/05 00:18:08;;;;;;;2.58;1.45;;;;;;;;;;5048504;28;20071;-72
2022/08/05 00:20:35;;;;;;;2.55;1.40;;;;;;;;;;5048668;28;20017;-72
2022/08/05 00:23:02;;;;;;;2.28;0.73;;;;;;;;;;5053316;28;20017;-72
2022/08/05 00:25:28;;;;;;;3.83;1.00;;;;;;;;;;5053576;28;20052;-72
2022/08/05 00:27:55;;;;;;;4.10;1.50;;;;;;;;;;5053620;28;20045;-72
2022/08/05 00:30:22;;;;;;;10.43;1.50;;;;;;;;;;5053332;28;20028;-72
2022/08/05 00:32:49;;;;;;;6.23;1.60;;;;;;;;;;5052915;28;20031;-72
2022/08/05 00:35:15;;;;;;;12.70;1.17;;;;;;;;;;5047954;28;20074;-72
2022/08/05 00:37:42;;;;;;;3.10;1.40;;;;;;;;;;5064345;28;20028;-72
2022/08/05 00:40:10;;;;;;;3.30;1.43;;;;;;;;;;5067450;28;20024;-72
2022/08/05 00:42:38;;;;;;;1.97;0.90;;;;;;;;;;5067917;28;20040;-72
2022/08/05 00:45:06;;;;;;;3.50;1.40;;;;;;;;;;5073102;28;20025;-72
2022/08/05 00:47:33;;;;;;;4.17;1.60;;;;;;;;;;5073003;28;20036;-72
2022/08/05 00:49:59;;;;;;;3.23;1.10;;;;;;;;;;5073105;28;20028;-72
2022/08/05 00:52:26;;;;;;;3.07;1.30;;;;;;;;;;5061943;28;20033;-72
2022/08/05 00:54:53;;;;;;;2.33;1.07;;;;;;;;;;5053099;28;20017;-72
2022/08/05 00:57:20;;;;;;;8.57;1.40;;;;;;;;;;5047212;28;20507;-72
2022/08/05 00:59:47;;;;;;;3.07;1.03;;;;;;;;;;5047566;28;20108;-72
2022/08/05 01:02:14;;;;;;;2.53;1.20;;;;;;;;;;5047665;28;20063;-72
2022/08/05 01:04:41;;;;;;;3.57;0.83;;;;;;;;;;5047442;28;20075;-71
2022/08/05 01:07:08;;;;;;;2.33;1.17;;;;;;;;;;5051964;28;20065;-71
2022/08/05 01:09:34;;;;;;;3.30;1.17;;;;;;;;;;5052820;28;20028;-72
2022/08/05 01:12:06;;;;;;;3.93;1.60;;;;;;;;;;5052724;28;20028;-72
2022/08/05 01:14:41;;;;;;;2.97;1.20;;;;;;;;;;5052524;28;20064;-72
2022/08/05 01:17:13;;;;;;;3.63;1.10;;;;;;;;;;5052615;28;20025;-71
2022/08/05 01:19:49;;;;;;;4.07;1.50;;;;;;;;;;5047119;28;20072;-71
2022/08/05 01:22:34;;;;;;;2.03;1.10;;;;;;;;;;5065546;28;20033;-72
2022/08/05 01:25:19;;;;;;;3.45;1.08;;;;;;;;;;5067005;28;20417;-72
2022/08/05 01:27:45;;;;;;;;;;;;;;;;;;5068141;28;20051;-72
2022/08/05 01:30:12;;;;;;;5.77;1.23;;;;;;;;;;5072248;28;20275;-71
2022/08/05 01:32:40;;;;;;;1.80;0.83;;;;;;;;;;5072399;28;20129;-71
2022/08/05 01:35:13;;;;;;;9.80;1.30;;;;;;;;;;5071818;28;20028;-72
2022/08/05 01:37:40;;;;;;;3.47;0.90;;;;;;;;;;5072288;28;20630;-72
2022/08/05 01:40:09;;;;;;;3.43;1.83;;;;;;;;;;5071004;28;20020;-72
2022/08/05 01:42:36;;;;;;;5.13;1.80;;;;;;;;;;5061316;28;20025;-71
2022/08/05 01:45:04;;;;;;;3.53;1.27;;;;;;;;;;5046917;28;20021;-72
2022/08/05 01:47:33;;;;;;;1.67;0.90;;;;;;;;;;5046767;28;20104;-71
2022/08/05 01:50:00;;;;;;;2.83;1.20;;;;;;;;;;5046696;28;20031;-72
2022/08/05 01:52:28;;;;;;;2.83;1.27;;;;;;;;;;5052132;28;20528;-72
2022/08/05 01:54:56;;;;;;;4.43;1.43;;;;;;;;;;5052149;28;20020;-71
2022/08/05 01:57:29;;;;;;;2.10;0.80;;;;;;;;;;5071002;28;20375;-71
2022/08/05 01:59:58;;;;;;;4.00;1.90;;;;;;;;;;5072027;28;20027;-71
2022/08/05 02:02:25;;;;;;;2.20;0.90;;;;;;;;;;5069454;28;20031;-71
2022/08/05 02:04:53;;;;;;;3.60;1.80;;;;;;;;;;5066225;28;20025;-72
2022/08/05 02:07:20;;;;;;;2.53;1.37;;;;;;;;;;5066742;28;20043;-71
2022/08/05 02:09:47;;;;;;;3.77;1.40;;;;;;;;;;5066875;28;20352;-72
2022/08/05 02:12:33;;;;;;;3.70;1.53;;;;;;;;;;5060767;28;20025;-71
2022/08/05 02:15:03;;;;;;;2.13;1.10;;;;;;;;;;5021452;28;20090;-71
2022/08/05 02:17:32;;;;;;;5.67;2.07;;;;;;;;;;5067302;28;20049;-71
2022/08/05 02:20:01;;;;;;;2.57;1.33;;;;;;;;;;5051944;28;20025;-71
2022/08/05 02:22:30;;;;;;;5.40;1.70;;;;;;;;;;5051841;28;20127;-71
2022/08/05 02:25:00;;;;;;;2.63;1.30;;;;;;;;;;5050512;28;20024;-71
2022/08/05 02:27:28;;;;;;;2.63;1.70;;;;;;;;;;5046332;28;20025;-72
2022/08/05 02:29:56;;;;;;;3.80;1.30;;;;;;;;;;5046607;28;20025;-71
2022/08/05 02:32:24;;;;;;;4.57;1.97;;;;;;;;;;5056261;28;20024;-71
2022/08/05 02:34:52;;;;;;;5.77;2.27;;;;;;;;;;5065225;28;20131;-74
2022/08/05 02:37:19;;;;;;;4.63;1.30;;;;;;;;;;5071743;28;20024;-74
2022/08/05 02:39:46;;;;;;;8.83;1.57;;;;;;;;;;5071585;28;20024;-73
2022/08/05 02:42:13;;;;;;;3.03;1.37;;;;;;;;;;5071691;28;20418;-74
2022/08/05 02:44:40;;;;;;;3.90;1.47;;;;;;;;;;5071674;28;20487;-74
2022/08/05 02:47:08;;;;;;;5.83;1.77;;;;;;;;;;5070517;28;20438;-74
2022/08/05 02:49:36;;;;;;;4.47;1.70;;;;;;;;;;5064681;28;20016;-74
2022/08/05 02:52:04;;;;;;;5.87;1.80;;;;;;;;;;5049276;28;20044;-74
2022/08/05 02:54:32;;;;;;;4.63;1.93;;;;;;;;;;5049986;28;20049;-74
2022/08/05 02:56:59;;;;;;;2.83;1.43;;;;;;;;;;5049837;28;20025;-74
2022/08/05 02:59:27;;;;;;;9.20;2.40;;;;;;;;;;5055245;28;20118;-74
2022/08/05 03:01:59;;;;;;;5.63;1.70;;;;;;;;;;5055273;28;20451;-73
2022/08/05 03:04:26;;;;;;;4.00;1.77;;;;;;;;;;5020884;28;20480;-74
2022/08/05 03:06:53;;;;;;;7.17;1.40;;;;;;;;;;5055099;28;20546;-74
2022/08/05 03:09:20;;;;;;;8.23;1.60;;;;;;;;;;5054756;28;20025;-74
2022/08/05 03:11:47;;;;;;;6.13;1.63;;;;;;;;;;5049450;28;20419;-74
2022/08/05 03:14:13;;;;;;;11.83;2.47;;;;;;;;;;5049448;28;20079;-74
2022/08/05 03:16:40;;;;;;;2.47;1.33;;;;;;;;;;5049545;28;20098;-74
2022/08/05 03:19:07;;;;;;;9.60;2.47;;;;;;;;;;5055690;28;20016;-74
2022/08/05 03:21:34;;;;;;;4.93;1.90;;;;;;;;;;5074111;28;20020;-74
2022/08/05 03:24:02;;;;;;;6.67;1.93;;;;;;;;;;5074697;28;20478;-74
2022/08/05 03:26:29;;;;;;;10.63;1.80;;;;;;;;;;5074705;28;20082;-74
2022/08/05 03:28:56;;;;;;;6.07;1.97;;;;;;;;;;5074641;28;20074;-74
2022/08/05 03:31:23;;;;;;;5.83;1.70;;;;;;;;;;5074532;28;20027;-74
2022/08/05 03:33:50;;;;;;;4.30;1.43;;;;;;;;;;5069299;28;20520;-74
2022/08/05 03:36:16;;;;;;;4.10;1.70;;;;;;;;;;5069182;28;20051;-74
2022/08/05 03:38:43;;;;;;;4.60;1.13;;;;;;;;;;5068883;28;20048;-74
2022/08/05 03:41:10;;;;;;;2.37;1.20;;;;;;;;;;5068934;28;20031;-74
2022/08/05 03:43:37;;;;;;;6.40;2.33;;;;;;;;;;5073447;28;20021;-74
2022/08/05 03:46:05;;;;;;;4.47;1.80;;;;;;;;;;5074231;28;20062;-74
2022/08/05 03:48:32;;;;;;;2.57;1.50;;;;;;;;;;5072626;28;20017;-73
2022/08/05 03:51:03;;;;;;;14.90;1.87;;;;;;;;;;5054093;28;20104;-73
2022/08/05 03:53:38;;;;;;;1.53;0.87;;;;;;;;;;5054249;28;20028;-71
2022/08/05 03:56:05;;;;;;;1.83;1.07;;;;;;;;;;5049125;28;20491;-71
2022/08/05 03:58:34;;;;;;;2.70;1.60;;;;;;;;;;5048706;28;20021;-71
2022/08/05 04:01:02;;;;;;;4.03;1.37;;;;;;;;;;5055556;28;20151;-71
2022/08/05 04:03:31;;;;;;;1.93;1.00;;;;;;;;;;5052836;28;20025;-71
2022/08/05 04:05:58;;;;;;;2.13;1.10;;;;;;;;;;5052694;28;20404;-71
2022/08/05 04:08:26;;;;;;;4.80;1.77;;;;;;;;;;5053711;28;20156;-71
2022/08/05 04:10:53;;;;;;;3.63;1.23;;;;;;;;;;5053935;28;20078;-71
2022/08/05 04:13:20;;;;;;;1.93;1.07;;;;;;;;;;5053758;28;20743;-71
2022/08/05 04:15:47;;;;;;;16.40;1.40;;;;;;;;;;5053877;28;20024;-71
2022/08/05 04:18:14;;;;;;;0.40;0.37;;;;;;;;;;5049418;28;20025;-71
2022/08/05 04:20:41;;;;;;;5.60;1.90;;;;;;;;;;5048460;28;20434;-71
2022/08/05 04:23:09;;;;;;;1.40;1.10;;;;;;;;;;5030613;28;20397;-71
2022/08/05 04:25:36;;;;;;;1.67;0.80;;;;;;;;;;5048082;28;20036;-71
2022/08/05 04:28:02;;;;;;;2.37;1.00;;;;;;;;;;5051712;28;20091;-71
2022/08/05 04:30:29;;;;;;;2.27;0.97;;;;;;;;;;5053556;28;20035;-72
2022/08/05 04:32:56;;;;;;;1.93;1.00;;;;;;;;;;5073616;28;20031;-71
2022/08/05 04:35:22;;;;;;;1.97;1.10;;;;;;;;;;5073409;28;20096;-71
2022/08/05 04:37:49;;;;;;;6.20;1.97;;;;;;;;;;5073221;28;20495;-71
2022/08/05 04:40:16;;;;;;;6.37;1.23;;;;;;;;;;5069348;28;20024;-71
2022/08/05 04:42:42;;;;;;;6.40;1.33;;;;;;;;;;5067976;28;20926;-71
2022/08/05 04:45:09;;;;;;;5.97;2.07;;;;;;;;;;5067657;28;20017;-71
2022/08/05 04:47:36;;;;;;;1.80;1.13;;;;;;;;;;5067689;28;20028;-71
2022/08/05 04:50:03;;;;;;;5.07;1.33;;;;;;;;;;5070455;28;20028;-71
2022/08/05 04:52:30;;;;;;;2.67;1.43;;;;;;;;;;5073047;28;20021;-71
2022/08/05 04:54:56;;;;;;;18.53;1.97;;;;;;;;;;5072921;28;20020;-71
2022/08/05 04:57:23;;;;;;;1.20;0.83;;;;;;;;;;5067034;28;20021;-71
2022/08/05 04:59:50;;;;;;;2.57;0.97;;;;;;;;;;5053869;28;20529;-71
2022/08/05 05:02:17;;;;;;;0.60;0.57;;;;;;;;;;5055196;28;20027;-71
2022/08/05 05:04:43;;;;;;;5.80;1.50;;;;;;;;;;5060896;28;20046;-73
2022/08/05 05:07:10;;;;;;;3.30;1.70;;;;;;;;;;5067407;28;20028;-72
2022/08/05 05:09:37;;;;;;;4.73;1.93;;;;;;;;;;5048554;28;20466;-72
2022/08/05 05:12:04;;;;;;;11.37;2.50;;;;;;;;;;5054759;28;20027;-74
2022/08/05 05:14:31;;;;;;;1.87;1.00;;;;;;;;;;5069451;28;20024;-73
2022/08/05 05:16:57;;;;;;;2.77;1.60;;;;;;;;;;5061425;28;20112;-74
2022/08/05 05:19:24;;;;;;;3.30;1.10;;;;;;;;;;5060732;28;20107;-74
2022/08/05 05:21:51;;;;;;;5.47;1.73;;;;;;;;;;5054665;28;20440;-74
2022/08/05 05:24:20;;;;;;;1.60;1.20;;;;;;;;;;5055276;28;20115;-74
2022/08/05 05:26:47;;;;;;;2.23;1.27;;;;;;;;;;5063254;28;20128;-74
2022/08/05 05:29:14;;;;;;;0.90;0.63;;;;;;;;;;5046071;28;20036;-74
2022/08/05 05:31:41;;;;;;;6.37;1.50;;;;;;;;;;5046756;28;20098;-74
2022/08/05 05:34:07;;;;;;;1.57;0.77;;;;;;;;;;5048491;28;20025;-74
2022/08/05 05:36:34;;;;;;;4.77;2.00;;;;;;;;;;5051997;28;20031;-74
2022/08/05 05:39:01;;;;;;;2.33;1.03;;;;;;;;;;5052192;28;20055;-74
2022/08/05 05:41:28;;;;;;;2.57;1.37;;;;;;;;;;5052089;28;20021;-74
2022/08/05 05:43:54;;;;;;;5.30;1.70;;;;;;;;;;5052274;28;20032;-74
2022/08/05 05:46:21;;;;;;;12.13;1.93;;;;;;;;;;5050468;28;20071;-74
2022/08/05 05:48:48;;;;;;;3.10;1.37;;;;;;;;;;5060989;28;20514;-74
2022/08/05 05:51:18;;;;;;;14.47;2.00;;;;;;;;;;5044385;28;20032;-74
2022/08/05 05:53:45;;;;;;;7.50;1.40;;;;;;;;;;5046467;28;20107;-74
2022/08/05 05:56:12;;;;;;;3.93;2.03;;;;;;;;;;5047725;28;20085;-74
2022/08/05 05:58:39;;;;;;;1.97;1.20;;;;;;;;;;5051290;28;20383;-74
2022/08/05 06:01:05;;;;;;;2.33;1.13;;;;;;;;;;5052136;28;20021;-74
2022/08/05 06:03:32;;;;;;;1.67;1.10;;;;;;;;;;5052085;28;20021;-74
2022/08/05 06:05:59;;;;;;;7.83;1.77;;;;;;;;;;5051796;28;20033;-74
2022/08/05 06:08:26;;;;;;;2.20;1.40;;;;;;;;;;5050386;28;20020;-74
2022/08/05 06:10:52;;;;;;;3.33;1.30;;;;;;;;;;5046397;28;20547;-74
2022/08/05 06:13:19;;;;;;;2.60;1.33;;;;;;;;;;5046263;28;20021;-72
2022/08/05 06:15:46;;;;;;;16.67;1.77;;;;;;;;;;5046770;28;20032;-72
2022/08/05 06:18:13;;;;;;;10.67;1.67;;;;;;;;;;5056513;28;20024;-71
2022/08/05 06:20:39;;;;;;;4.83;2.03;;;;;;;;;;5071584;28;20033;-72
2022/08/05 06:23:06;;;;;;;4.97;1.67;;;;;;;;;;5057316;28;20025;-72
2022/08/05 06:25:33;;;;;;;3.73;1.73;;;;;;;;;;5054010;28;20033;-72
2022/08/05 06:27:59;;;;;;;1.53;1.03;;;;;;;;;;5055951;28;20562;-72
2022/08/05 06:30:26;;;;;;;2.20;1.47;;;;;;;;;;5055092;28;20032;-72
2022/08/05 06:32:53;;;;;;;4.67;1.80;;;;;;;;;;5050184;28;20029;-72
2022/08/05 06:35:20;;;;;;;0.97;0.87;;;;;;;;;;5050556;28;20483;-72
2022/08/05 06:37:46;;;;;;;3.77;1.57;;;;;;;;;;5050565;28;20024;-72
2022/08/05 06:40:13;;;;;;;5.30;2.03;;;;;;;;;;5049931;28;20458;-72
2022/08/05 06:42:40;;;;;;;4.77;1.93;;;;;;;;;;5054953;28;20028;-72
2022/08/05 06:45:08;;;;;;;3.90;1.80;;;;;;;;;;5055525;28;20029;-72
2022/08/05 06:47:34;;;;;;;11.23;1.80;;;;;;;;;;5055346;28;20021;-72
2022/08/05 06:50:01;;;;;;;3.57;2.07;;;;;;;;;;5055369;28;20061;-72
2022/08/05 06:52:28;;;;;;;4.97;1.90;;;;;;;;;;5056099;28;20104;-72
2022/08/05 06:54:55;;;;;;;7.07;1.90;;;;;;;;;;5049972;28;20052;-72
2022/08/05 06:57:22;;;;;;;4.20;1.30;;;;;;;;;;5049830;28;20029;-72
2022/08/05 06:59:48;;;;;;;1.67;1.20;;;;;;;;;;5049551;28;20060;-71
2022/08/05 07:02:15;;;;;;;1.93;1.20;;;;;;;;;;5049910;28;20040;-72
2022/08/05 07:04:42;;;;;;;12.70;1.30;;;;;;;;;;5054568;28;20024;-72
2022/08/05 07:07:08;;;;;;;2.33;1.40;;;;;;;;;;5055033;28;20379;-72
2022/08/05 07:09:35;;;;;;;2.13;1.20;;;;;;;;;;5055195;28;20533;-72
2022/08/05 07:12:02;;;;;;;4.97;1.80;;;;;;;;;;5054929;28;20025;-72
2022/08/05 07:17:14;;;;;;;2.72;1.48;;;;;;;;;;5053476;28;20040;-72
2022/08/05 07:19:40;;;;;;;3.37;1.13;;;;;;;;;;5069560;28;20016;-72
2022/08/05 07:22:07;;;;;;;3.07;1.20;;;;;;;;;;5069555;28;20475;-71
2022/08/05 07:24:34;;;;;;;2.73;1.33;;;;;;;;;;5069351;28;20020;-71
2022/08/05 07:27:00;;;;;;;6.70;2.33;;;;;;;;;;5073925;28;20060;-71
2022/08/05 07:29:27;;;;;;;4.33;1.43;;;;;;;;;;5074425;28;20158;-71
2022/08/05 07:31:54;;;;;;;1.60;1.07;;;;;;;;;;5074264;28;20108;-71
2022/08/05 07:34:21;;;;;;;3.27;1.93;;;;;;;;;;5074735;28;20028;-71
2022/08/05 07:36:47;;;;;;;2.27;1.50;;;;;;;;;;5073719;28;20044;-71
2022/08/05 07:39:14;;;;;;;8.30;1.30;;;;;;;;;;5069464;28;20490;-71
2022/08/05 07:41:41;;;;;;;9.83;1.67;;;;;;;;;;5069172;28;20025;-71
2022/08/05 07:44:09;;;;;;;6.27;1.93;;;;;;;;;;5068771;28;20032;-71
2022/08/05 07:46:36;;;;;;;5.10;1.73;;;;;;;;;;5059667;28;20035;-71
2022/08/05 07:49:03;;;;;;;5.17;2.10;;;;;;;;;;5053278;28;20025;-71
2022/08/05 07:51:30;;;;;;;2.93;1.67;;;;;;;;;;5054367;28;20032;-71
2022/08/05 07:53:57;;;;;;;3.90;1.90;;;;;;;;;;5054273;28;20025;-71
2022/08/05 07:56:23;;;;;;;1.73;1.30;;;;;;;;;;5054028;28;20074;-71
2022/08/05 07:58:50;;;;;;;4.10;1.47;;;;;;;;;;5054123;28;20565;-71
2022/08/05 08:01:17;;;;;;;2.53;1.13;;;;;;;;;;5048830;28;20045;-71
2022/08/05 08:03:44;;;;;;;3.53;1.63;;;;;;;;;;5048625;28;20017;-71
2022/08/05 08:06:11;;;;;;;2.53;1.33;;;;;;;;;;5048566;28;20032;-71
2022/08/05 08:08:37;;;;;;;1.57;0.90;;;;;;;;;;5048572;28;20057;-71
2022/08/05 08:11:04;;;;;;;2.93;1.20;;;;;;;;;;5052563;28;20029;-71
2022/08/05 08:13:31;;;;;;;0.77;0.63;;;;;;;;;;5053796;28;20383;-71
2022/08/05 08:15:57;;;;;;;2.07;1.13;;;;;;;;;;5056599;28;20023;-71
2022/08/05 08:18:24;;;;;;;12.47;1.27;;;;;;;;;;5073535;28;20025;-71
2022/08/05 08:20:51;;;;;;;7.80;1.57;;;;;;;;;;5073436;28;20024;-71
2022/08/05 08:23:18;;;;;;;1.40;0.73;;;;;;;;;;5069480;28;20032;-71
2022/08/05 08:25:45;;;;;;;2.30;1.13;;;;;;;;;;5068143;28;20036;-71
2022/08/05 08:28:12;;;;;;;1.93;1.07;;;;;;;;;;5068212;28;20033;-71
2022/08/05 08:30:38;;;;;;;2.13;1.07;;;;;;;;;;5068117;28;20028;-71
2022/08/05 08:33:09;;;;;;;1.93;1.03;;;;;;;;;;5071164;28;20024;-71
2022/08/05 08:35:37;;;;;;;1.60;1.13;;;;;;;;;;5073463;28;21020;-71
2022/08/05 08:38:03;;;;;;;4.50;0.90;;;;;;;;;;5073222;28;20436;-71
2022/08/05 08:40:34;;;;;;;4.50;1.43;;;;;;;;;;5064664;28;20032;-71
2022/08/05 08:43:01;;;;;;;6.47;1.83;;;;;;;;;;5053400;28;20021;-71
2022/08/05 08:45:29;;;;;;;4.67;1.63;;;;;;;;;;5049148;28;20472;-71
2022/08/05 08:47:56;;;;;;;1.87;1.27;;;;;;;;;;5046447;28;20028;-71
2022/08/05 08:50:23;;;;;;;2.10;1.33;;;;;;;;;;5047774;28;20031;-71
2022/08/05 08:52:51;;;;;;;6.50;2.23;;;;;;;;;;5047685;28;20025;-71
2022/08/05 08:55:18;;;;;;;4.83;1.60;;;;;;;;;;5053920;28;20365;-70
2022/08/05 08:57:47;;;;;;;6.37;2.37;;;;;;;;;;5072975;28;20483;-71
2022/08/05 09:00:15;;;;;;;1.90;1.00;;;;;;;;;;5072729;28;20016;-71
2022/08/05 09:02:42;;;;;;;1.73;1.17;;;;;;;;;;5072583;28;20071;-71
2022/08/05 09:05:10;;;;;;;9.53;1.53;;;;;;;;;;5071023;28;20028;-71
2022/08/05 09:07:37;;;;;;;5.07;1.70;;;;;;;;;;5068855;28;20028;-70
2022/08/05 09:10:04;;;;;;;4.30;1.63;;;;;;;;;;5067378;28;20024;-71
2022/08/05 09:12:31;;;;;;;3.37;1.80;;;;;;;;;;5067215;28;20028;-71
2022/08/05 09:14:58;;;;;;;5.23;0.87;;;;;;;;;;5067412;28;20409;-71
2022/08/05 09:17:24;;;;;;;3.50;1.60;;;;;;;;;;5070189;28;20024;-70
2022/08/05 09:19:51;;;;;;;6.80;2.60;;;;;;;;;;5072262;28;20021;-71
2022/08/05 09:22:18;;;;;;;2.20;1.27;;;;;;;;;;5072606;28;20030;-71
2022/08/05 09:24:57;;;;;;;2.30;1.50;;;;;;;;;;5061034;28;20036;-71
2022/08/05 09:27:34;;;;;;;1.57;1.10;;;;;;;;;;5052446;28;20037;-71
2022/08/05 09:30:01;;;;;;;3.70;2.10;;;;;;;;;;5047802;28;20380;-71
2022/08/05 09:32:35;;;;;;;1.17;0.90;;;;;;;;;;5047090;28;20033;-71
2022/08/05 09:35:09;;;;;;;1.43;1.03;;;;;;;;;;5047061;28;20021;-71
2022/08/05 09:37:35;;;;;;;3.70;0.93;;;;;;;;;;5047106;28;20025;-71
2022/08/05 09:40:02;;;;;;;1.10;0.80;;;;;;;;;;5050926;28;20476;-71
2022/08/05 09:42:38;;;;;;;1.10;0.80;;;;;;;;;;5051991;28;20025;-71
2022/08/05 09:45:08;;;;;;;3.80;1.67;;;;;;;;;;5052258;28;20029;-71
2022/08/05 09:47:41;;;;;;;6.43;2.57;;;;;;;;;;5052031;28;20041;-71
2022/08/05 09:50:08;;;;;;;2.73;1.50;;;;;;;;;;5052320;28;20764;-71
2022/08/05 09:52:35;;;;;;;0.93;0.67;;;;;;;;;;5047171;28;20031;-71
2022/08/05 09:55:09;;;;;;;4.87;1.87;;;;;;;;;;5059600;28;20316;-71
2022/08/05 09:57:40;;;;;;;3.40;1.90;;;;;;;;;;5066833;28;20317;-71
2022/08/05 10:00:16;;;;;;;3.83;1.57;;;;;;;;;;5066258;28;20603;-71
2022/08/05 10:02:44;;;;;;;1.07;0.90;;;;;;;;;;5071824;28;20332;-71
2022/08/05 10:05:13;;;;;;;2.13;1.50;;;;;;;;;;5071880;28;20025;-71
2022/08/05 10:07:44;;;;;;;2.53;1.37;;;;;;;;;;5071951;28;20628;-71
2022/08/05 10:10:10;;;;;;;2.53;1.43;;;;;;;;;;5072169;28;20327;-70
2022/08/05 10:12:56;;;;;;;7.30;2.17;;;;;;;;;;5071985;28;20254;-70
2022/08/05 10:15:23;;;;;;;2.70;1.57;;;;;;;;;;5066625;28;20272;-71
2022/08/05 10:18:05;;;;;;;2.07;1.10;;;;;;;;;;5066518;28;20293;-71
2022/08/05 10:20:33;;;;;;;8.57;2.30;;;;;;;;;;5066492;28;20265;-71
2022/08/05 10:23:01;;;;;;;3.83;1.67;;;;;;;;;;5067045;28;20266;-71
2022/08/05 10:25:27;;;;;;;1.53;1.13;;;;;;;;;;5055119;28;20060;-71
2022/08/05 10:27:54;;;;;;;3.07;1.50;;;;;;;;;;5051502;28;20273;-71
2022/08/05 10:30:21;;;;;;;1.83;1.13;;;;;;;;;;5051887;28;20281;-71
2022/08/05 10:32:48;;;;;;;2.07;1.00;;;;;;;;;;5051813;28;20816;-71
2022/08/05 10:35:15;;;;;;;1.43;0.83;;;;;;;;;;5050659;28;20353;-71
2022/08/05 10:37:42;;;;;;;9.53;2.03;;;;;;;;;;5046315;28;20266;-71
2022/08/05 10:40:20;;;;;;;4.97;1.77;;;;;;;;;;5046261;28;20250;-71
2022/08/05 10:42:50;;;;;;;3.30;2.03;;;;;;;;;;5045855;28;20337;-71
2022/08/05 10:45:24;;;;;;;2.13;1.07;;;;;;;;;;5047130;28;20644;-71
2022/08/05 10:47:51;;;;;;;6.40;2.03;;;;;;;;;;5051755;28;20250;-71
2022/08/05 10:50:18;;;;;;;1.80;1.13;;;;;;;;;;5051737;28;20316;-71
2022/08/05 10:52:51;;;;;;;21.13;1.50;;;;;;;;;;5051616;28;20671;-71
2022/08/05 10:55:18;;;;;;;6.87;2.53;;;;;;;;;;5065617;28;20305;-71
2022/08/05 10:57:45;;;;;;;2.73;1.30;;;;;;;;;;5069794;28;20567;-71
2022/08/05 11:00:21;;;;;;;6.77;1.77;;;;;;;;;;5066101;28;20253;-71
2022/08/05 11:03:06;;;;;;;2.20;1.50;;;;;;;;;;5066231;28;20263;-70
2022/08/05 11:05:33;;;;;;;1.17;1.00;;;;;;;;;;5065623;28;20789;-71
2022/08/05 11:08:04;;;;;;;4.50;1.73;;;;;;;;;;5068419;28;20080;-71
2022/08/05 11:10:32;;;;;;;1.97;1.33;;;;;;;;;;5071574;28;20310;-71
2022/08/05 11:12:59;;;;;;;1.33;1.00;;;;;;;;;;5074328;28;20257;-71
2022/08/05 11:15:32;;;;;;;2.17;1.17;;;;;;;;;;5075078;28;20292;-70
2022/08/05 11:18:23;;;;;;;4.60;2.13;;;;;;;;;;5074622;28;20288;-71
2022/08/05 11:20:50;;;;;;;2.83;1.80;;;;;;;;;;5071064;28;20275;-71
2022/08/05 11:23:35;;;;;;;4.07;2.27;;;;;;;;;;5068787;28;20261;-71
2022/08/05 11:26:07;;;;;;;1.58;1.08;;;;;;;;;;5049516;28;20286;-71
2022/08/05 11:28:33;;;;;;;1.83;1.30;;;;;;;;;;5049028;28;20430;-71
2022/08/05 11:31:00;;;;;;;1.97;1.20;;;;;;;;;;5052870;28;20294;-71
2022/08/05 11:33:40;;;;;;;5.17;1.23;;;;;;;;;;5054722;28;20764;-71
2022/08/05 11:36:08;;;;;;;1.37;0.60;;;;;;;;;;5054261;28;20265;-71
2022/08/05 11:38:46;;;;;;;6.17;1.73;;;;;;;;;;5054419;28;20296;-70
2022/08/05 11:41:23;;;;;;;1.37;1.17;;;;;;;;;;5054468;28;20250;-71
2022/08/05 11:44:00;;;;;;;18.87;2.20;;;;;;;;;;5049041;28;20273;-71
2022/08/05 11:46:28;;;;;;;3.73;2.00;;;;;;;;;;5048741;28;20365;-71
2022/08/05 11:48:56;;;;;;;7.07;2.03;;;;;;;;;;5049171;28;20592;-71
2022/08/05 11:51:23;;;;;;;4.00;1.67;;;;;;;;;;5048888;28;20870;-71
2022/08/05 11:53:50;;;;;;;3.37;2.03;;;;;;;;;;5068161;28;20750;-71
2022/08/05 11:56:17;;;;;;;3.27;1.17;;;;;;;;;;5074133;28;20262;-70
2022/08/05 11:58:44;;;;;;;2.23;1.50;;;;;;;;;;5074106;28;20748;-71
2022/08/05 12:01:20;;;;;;;4.80;1.70;;;;;;;;;;5073637;28;20245;-71
2022/08/05 12:03:51;;;;;;;5.30;1.40;;;;;;;;;;5073651;28;20269;-71
2022/08/05 12:06:20;;;;;;;14.63;1.93;;;;;;;;;;5068446;28;20291;-71
2022/08/05 12:08:47;;;;;;;4.50;1.90;;;;;;;;;;5068875;28;20276;-71
2022/08/05 12:11:19;;;;;;;5.87;1.63;;;;;;;;;;5068636;28;20304;-71
2022/08/05 12:13:57;;;;;;;4.97;2.33;;;;;;;;;;5068557;28;20265;-71
2022/08/05 12:16:25;;;;;;;7.63;2.13;;;;;;;;;;5073697;28;20263;-71
2022/08/05 12:18:52;;;;;;;0.77;0.67;;;;;;;;;;5073721;28;20669;-71
2022/08/05 12:21:24;;;;;;;9.10;2.00;;;;;;;;;;5073565;28;20253;-71
2022/08/05 12:23:57;;;;;;;4.27;1.73;;;;;;;;;;5058492;28;20609;-71
2022/08/05 12:26:24;;;;;;;2.70;1.87;;;;;;;;;;5052218;28;20281;-71
2022/08/05 12:28:51;;;;;;;5.93;2.43;;;;;;;;;;5048323;28;20749;-71
2022/08/05 12:31:19;;;;;;;3.97;1.43;;;;;;;;;;5048052;28;20289;-71
2022/08/05 12:33:46;;;;;;;2.40;1.63;;;;;;;;;;5048071;28;20745;-71
2022/08/05 12:36:13;;;;;;;1.83;1.17;;;;;;;;;;5048861;28;20741;-71
2022/08/05 12:38:40;;;;;;;6.37;2.03;;;;;;;;;;5052804;28;20258;-71
2022/08/05 12:41:12;;;;;;;2.10;1.67;;;;;;;;;;5053409;28;20254;-71
2022/08/05 12:43:55;;;;;;;2.87;1.67;;;;;;;;;;5053260;28;20262;-71
2022/08/05 12:46:22;;;;;;;3.13;1.73;;;;;;;;;;5053206;28;20323;-70
2022/08/05 12:49:05;;;;;;;3.13;2.00;;;;;;;;;;5050742;28;20276;-71
2022/08/05 12:51:32;;;;;;;2.40;1.57;;;;;;;;;;5047737;28;20270;-71
2022/08/05 12:54:00;;;;;;;6.17;2.37;;;;;;;;;;5062123;28;20265;-71
2022/08/05 12:56:28;;;;;;;2.27;1.83;;;;;;;;;;5067377;28;20344;-71
2022/08/05 12:59:14;;;;;;;7.57;2.67;;;;;;;;;;5069580;28;20333;-71
2022/08/05 13:01:40;;;;;;;;;;;;;;;;;;5067944;28;20274;-69
2022/08/05 13:04:07;;;;;;;3.20;2.07;;;;;;;;;;5052918;28;19904;-69
2022/08/05 13:06:37;;;;;;;8.83;2.67;;;;;;;;;;5052910;28;20278;-70
2022/08/05 13:09:08;;;;;;;14.30;3.60;;;;;;;;;;5052856;28;20257;-69
2022/08/05 13:11:38;;;;;;;25.37;2.30;;;;;;;;;;5049095;28;20303;-69
2022/08/05 13:14:09;;;;;;;9.03;2.70;;;;;;;;;;5047498;28;20319;-69
2022/08/05 13:16:56;;;;;;;8.90;3.90;;;;;;;;;;5047258;28;20254;-69
2022/08/05 13:19:27;;;;;;;6.57;3.67;;;;;;;;;;5047220;28;20285;-69
2022/08/05 13:21:54;;;;;;;4.37;2.07;;;;;;;;;;5050582;28;20270;-69
2022/08/05 13:24:23;;;;;;;5.07;2.87;;;;;;;;;;5052569;28;20501;-69
2022/08/05 13:26:51;;;;;;;5.33;2.50;;;;;;;;;;5052587;28;20074;-69
2022/08/05 13:29:21;;;;;;;9.03;3.10;;;;;;;;;;5052397;28;20142;-69
2022/08/05 13:31:47;;;;;;;13.03;3.10;;;;;;;;;;5064064;28;20478;-69
2022/08/05 13:34:14;;;;;;;15.50;2.47;;;;;;;;;;5061311;28;20501;-70
2022/08/05 13:36:42;;;;;;;3.20;2.00;;;;;;;;;;5048491;28;20082;-71
2022/08/05 13:39:09;;;;;;;4.27;2.13;;;;;;;;;;5066844;28;20021;-70
2022/08/05 13:41:37;;;;;;;5.60;2.43;;;;;;;;;;5066838;28;20036;-71
2022/08/05 13:44:04;;;;;;;20.17;3.07;;;;;;;;;;5070610;28;20028;-71
2022/08/05 13:46:31;;;;;;;4.83;2.00;;;;;;;;;;5071925;28;20183;-71
2022/08/05 13:48:57;;;;;;;7.30;2.53;;;;;;;;;;5071790;28;20121;-71
2022/08/05 13:51:28;;;;;;;4.17;2.63;;;;;;;;;;5067195;28;20025;-71
2022/08/05 13:53:56;;;;;;;5.87;2.40;;;;;;;;;;5068626;28;20518;-71
2022/08/05 13:56:22;;;;;;;5.70;3.10;;;;;;;;;;5086542;28;20111;-71
2022/08/05 13:58:49;;;;;;;8.57;3.47;;;;;;;;;;5081687;28;20052;-71
2022/08/05 14:01:16;;;;;;;6.10;2.93;;;;;;;;;;5065629;28;20089;-71
2022/08/05 14:03:43;;;;;;;10.30;3.20;;;;;;;;;;5055846;28;20052;-71
2022/08/05 14:06:09;;;;;;;19.67;3.47;;;;;;;;;;5052967;28;20044;-71
2022/08/05 14:08:36;;;;;;;25.23;2.90;;;;;;;;;;5091516;28;20487;-71
2022/08/05 14:11:03;;;;;;;5.67;2.83;;;;;;;;;;5085053;28;20013;-71
2022/08/05 14:13:30;;;;;;;18.80;3.17;;;;;;;;;;5068818;28;20025;-70
2022/08/05 14:15:56;;;;;;;12.73;3.50;;;;;;;;;;5071135;28;20028;-71
2022/08/05 14:18:24;;;;;;;5.10;2.20;;;;;;;;;;5056016;28;20029;-71
2022/08/05 14:20:50;;;;;;;5.50;2.50;;;;;;;;;;5071603;28;20079;-70
2022/08/05 14:23:17;;;;;;;4.90;2.47;;;;;;;;;;5073845;28;20421;-71
2022/08/05 14:25:44;;;;;;;20.30;3.07;;;;;;;;;;5086613;28;20027;-71
2022/08/05 14:28:10;;;;;;;5.17;2.13;;;;;;;;;;5079135;28;20027;-71
2022/08/05 14:30:37;;;;;;;3.57;2.17;;;;;;;;;;5070845;28;20021;-71
2022/08/05 14:33:04;;;;;;;5.70;2.10;;;;;;;;;;5071723;28;20040;-71
2022/08/05 14:35:30;;;;;;;9.40;2.47;;;;;;;;;;5069768;28;20028;-71
2022/08/05 14:37:57;;;;;;;8.53;3.50;;;;;;;;;;5068646;28;20024;-71
2022/08/05 14:40:24;;;;;;;8.80;2.70;;;;;;;;;;5088709;28;20024;-71
2022/08/05 14:42:51;;;;;;;10.30;3.27;;;;;;;;;;5070618;28;20024;-71
2022/08/05 14:45:18;;;;;;;11.00;1.80;;;;;;;;;;5066958;28;20032;-71
2022/08/05 14:47:45;;;;;;;10.00;2.33;;;;;;;;;;5069620;28;20111;-71
2022/08/05 14:50:12;;;;;;;9.10;2.60;;;;;;;;;;5072239;28;20031;-71
2022/08/05 14:52:38;;;;;;;7.23;2.17;;;;;;;;;;5075489;28;20025;-71